sensor_id;sensor_type;location;lat;lon;timestamp;P1;durP1;ratioP1;P2;durP2;ratioP2
42084;SDS011;27746;52.228;20.890;2022-11-20T00:01:03;58.13;;;25.30;;
42084;SDS011;27746;52.228;20.890;2022-11-20T00:03:31;56.15;;;26.13;;
42084;SDS011;27746;52.228;20.890;2022-11-20T00:05:59;59.75;;;28.60;;
42084;SDS011;27746;52.228;20.890;2022-11-20T00:08:26;59.95;;;27.67;;
42084;SDS011;27746;52.228;20.890;2022-11-20T00:10:54;55.65;;;26.63;;
42084;SDS011;27746;52.228;20.890;2022-11-20T00:13:21;56.72;;;25.92;;
42084;SDS011;27746;52.228;20.890;2022-11-20T00:15:50;62.17;;;27.25;;
42084;SDS011;27746;52.228;20.890;2022-11-20T00:18:23;63.58;;;28.95;;
42084;SDS011;27746;52.228;20.890;2022-11-20T00:20:50;60.72;;;28.63;;
42084;SDS011;27746;52.228;20.890;2022-11-20T00:23:17;58.85;;;26.63;;
42084;SDS011;27746;52.228;20.890;2022-11-20T00:25:43;60.38;;;28.38;;
42084;SDS011;27746;52.228;20.890;2022-11-20T00:28:11;65.95;;;28.73;;
42084;SDS011;27746;52.228;20.890;2022-11-20T00:30:38;60.83;;;27.02;;
42084;SDS011;27746;52.228;20.890;2022-11-20T00:33:06;59.47;;;27.90;;
42084;SDS011;27746;52.228;20.890;2022-11-20T00:35:32;59.20;;;27.00;;
42084;SDS011;27746;52.228;20.890;2022-11-20T00:37:59;54.47;;;26.63;;
42084;SDS011;27746;52.228;20.890;2022-11-20T00:40:28;57.60;;;27.00;;
42084;SDS011;27746;52.228;20.890;2022-11-20T00:42:55;59.45;;;28.27;;
42084;SDS011;27746;52.228;20.890;2022-11-20T00:45:22;57.47;;;27.42;;
42084;SDS011;27746;52.228;20.890;2022-11-20T00:47:48;57.80;;;27.90;;
42084;SDS011;27746;52.228;20.890;2022-11-20T00:50:19;54.42;;;27.10;;
42084;SDS011;27746;52.228;20.890;2022-11-20T00:52:45;59.42;;;26.75;;
42084;SDS011;27746;52.228;20.890;2022-11-20T00:55:13;56.13;;;28.38;;
42084;SDS011;27746;52.228;20.890;2022-11-20T00:57:40;58.97;;;28.15;;
42084;SDS011;27746;52.228;20.890;2022-11-20T01:00:07;62.97;;;28.50;;
42084;SDS011;27746;52.228;20.890;2022-11-20T01:02:35;52.28;;;26.40;;
42084;SDS011;27746;52.228;20.890;2022-11-20T01:05:01;55.83;;;26.77;;
42084;SDS011;27746;52.228;20.890;2022-11-20T01:07:30;63.38;;;28.08;;
42084;SDS011;27746;52.228;20.890;2022-11-20T01:09:58;52.72;;;25.58;;
42084;SDS011;27746;52.228;20.890;2022-11-20T01:12:25;56.85;;;27.60;;
42084;SDS011;27746;52.228;20.890;2022-11-20T01:14:51;56.47;;;27.17;;
42084;SDS011;27746;52.228;20.890;2022-11-20T01:17:20;61.85;;;29.65;;
42084;SDS011;27746;52.228;20.890;2022-11-20T01:19:48;54.67;;;26.10;;
42084;SDS011;27746;52.228;20.890;2022-11-20T01:22:15;55.45;;;25.90;;
42084;SDS011;27746;52.228;20.890;2022-11-20T01:24:43;57.40;;;25.73;;
42084;SDS011;27746;52.228;20.890;2022-11-20T01:27:10;54.22;;;28.02;;
42084;SDS011;27746;52.228;20.890;2022-11-20T01:29:37;59.03;;;27.60;;
42084;SDS011;27746;52.228;20.890;2022-11-20T01:32:03;56.65;;;28.25;;
42084;SDS011;27746;52.228;20.890;2022-11-20T01:34:30;60.40;;;27.63;;
42084;SDS011;27746;52.228;20.890;2022-11-20T01:36:57;56.65;;;26.13;;
42084;SDS011;27746;52.228;20.890;2022-11-20T01:39:25;59.58;;;27.08;;
42084;SDS011;27746;52.228;20.890;2022-11-20T01:41:54;61.03;;;26.63;;
42084;SDS011;27746;52.228;20.890;2022-11-20T01:44:45;60.67;;;27.58;;
42084;SDS011;27746;52.228;20.890;2022-11-20T01:47:16;57.55;;;26.40;;
42084;SDS011;27746;52.228;20.890;2022-11-20T01:49:47;57.00;;;26.70;;
42084;SDS011;27746;52.228;20.890;2022-11-20T01:52:17;57.72;;;27.83;;
42084;SDS011;27746;52.228;20.890;2022-11-20T01:54:46;57.97;;;26.75;;
42084;SDS011;27746;52.228;20.890;2022-11-20T01:57:18;57.72;;;25.40;;
42084;SDS011;27746;52.228;20.890;2022-11-20T01:59:47;60.00;;;25.55;;
42084;SDS011;27746;52.228;20.890;2022-11-20T02:02:20;49.78;;;25.40;;
42084;SDS011;27746;52.228;20.890;2022-11-20T02:04:47;55.45;;;25.52;;
42084;SDS011;27746;52.228;20.890;2022-11-20T02:07:17;54.35;;;26.00;;
42084;SDS011;27746;52.228;20.890;2022-11-20T02:09:45;49.15;;;25.25;;
42084;SDS011;27746;52.228;20.890;2022-11-20T02:12:12;57.75;;;26.33;;
42084;SDS011;27746;52.228;20.890;2022-11-20T02:14:54;56.90;;;26.35;;
42084;SDS011;27746;52.228;20.890;2022-11-20T02:17:21;57.05;;;27.35;;
42084;SDS011;27746;52.228;20.890;2022-11-20T02:19:47;55.60;;;26.02;;
42084;SDS011;27746;52.228;20.890;2022-11-20T02:22:16;51.42;;;26.20;;
42084;SDS011;27746;52.228;20.890;2022-11-20T02:24:48;54.05;;;25.77;;
42084;SDS011;27746;52.228;20.890;2022-11-20T02:27:17;52.63;;;25.63;;
42084;SDS011;27746;52.228;20.890;2022-11-20T02:29:45;50.05;;;25.15;;
42084;SDS011;27746;52.228;20.890;2022-11-20T02:32:19;60.13;;;26.67;;
42084;SDS011;27746;52.228;20.890;2022-11-20T02:34:46;56.90;;;27.02;;
42084;SDS011;27746;52.228;20.890;2022-11-20T02:37:13;59.45;;;25.92;;
42084;SDS011;27746;52.228;20.890;2022-11-20T02:39:40;55.42;;;27.35;;
42084;SDS011;27746;52.228;20.890;2022-11-20T02:42:10;54.03;;;26.25;;
42084;SDS011;27746;52.228;20.890;2022-11-20T02:44:37;55.95;;;27.10;;
42084;SDS011;27746;52.228;20.890;2022-11-20T02:47:04;59.53;;;25.38;;
42084;SDS011;27746;52.228;20.890;2022-11-20T02:49:30;58.45;;;26.33;;
42084;SDS011;27746;52.228;20.890;2022-11-20T02:51:58;58.03;;;27.02;;
42084;SDS011;27746;52.228;20.890;2022-11-20T02:54:24;51.60;;;24.77;;
42084;SDS011;27746;52.228;20.890;2022-11-20T02:56:51;58.90;;;26.80;;
42084;SDS011;27746;52.228;20.890;2022-11-20T02:59:20;57.33;;;26.50;;
42084;SDS011;27746;52.228;20.890;2022-11-20T03:02:01;63.05;;;28.15;;
42084;SDS011;27746;52.228;20.890;2022-11-20T03:04:27;52.85;;;26.85;;
42084;SDS011;27746;52.228;20.890;2022-11-20T03:06:54;57.70;;;26.98;;
42084;SDS011;27746;52.228;20.890;2022-11-20T03:09:21;58.20;;;26.75;;
42084;SDS011;27746;52.228;20.890;2022-11-20T03:11:51;54.00;;;25.67;;
42084;SDS011;27746;52.228;20.890;2022-11-20T03:14:19;56.85;;;25.83;;
42084;SDS011;27746;52.228;20.890;2022-11-20T03:16:47;57.03;;;25.95;;
42084;SDS011;27746;52.228;20.890;2022-11-20T03:19:14;53.53;;;25.83;;
42084;SDS011;27746;52.228;20.890;2022-11-20T03:21:41;63.25;;;27.05;;
42084;SDS011;27746;52.228;20.890;2022-11-20T03:24:08;52.03;;;26.50;;
42084;SDS011;27746;52.228;20.890;2022-11-20T03:26:34;56.85;;;27.70;;
42084;SDS011;27746;52.228;20.890;2022-11-20T03:29:02;54.47;;;25.63;;
42084;SDS011;27746;52.228;20.890;2022-11-20T03:31:33;55.15;;;24.75;;
42084;SDS011;27746;52.228;20.890;2022-11-20T03:34:02;62.22;;;27.40;;
42084;SDS011;27746;52.228;20.890;2022-11-20T03:36:30;61.20;;;26.70;;
42084;SDS011;27746;52.228;20.890;2022-11-20T03:38:57;55.85;;;26.80;;
42084;SDS011;27746;52.228;20.890;2022-11-20T03:41:24;52.35;;;26.65;;
42084;SDS011;27746;52.228;20.890;2022-11-20T03:43:52;53.85;;;25.17;;
42084;SDS011;27746;52.228;20.890;2022-11-20T03:46:20;57.75;;;26.63;;
42084;SDS011;27746;52.228;20.890;2022-11-20T03:48:49;58.30;;;28.33;;
42084;SDS011;27746;52.228;20.890;2022-11-20T03:51:16;60.25;;;27.70;;
42084;SDS011;27746;52.228;20.890;2022-11-20T03:53:44;55.47;;;26.98;;
42084;SDS011;27746;52.228;20.890;2022-11-20T03:56:13;58.63;;;27.00;;
42084;SDS011;27746;52.228;20.890;2022-11-20T03:58:41;55.90;;;25.33;;
42084;SDS011;27746;52.228;20.890;2022-11-20T04:01:12;60.53;;;26.38;;
42084;SDS011;27746;52.228;20.890;2022-11-20T04:03:42;57.53;;;25.77;;
42084;SDS011;27746;52.228;20.890;2022-11-20T04:06:13;60.38;;;26.65;;
42084;SDS011;27746;52.228;20.890;2022-11-20T04:08:41;62.28;;;27.25;;
42084;SDS011;27746;52.228;20.890;2022-11-20T04:11:09;53.30;;;27.52;;
42084;SDS011;27746;52.228;20.890;2022-11-20T04:13:36;61.15;;;26.60;;
42084;SDS011;27746;52.228;20.890;2022-11-20T04:16:03;62.70;;;27.77;;
42084;SDS011;27746;52.228;20.890;2022-11-20T04:18:30;55.90;;;27.30;;
42084;SDS011;27746;52.228;20.890;2022-11-20T04:20:57;60.38;;;28.80;;
42084;SDS011;27746;52.228;20.890;2022-11-20T04:23:27;61.47;;;26.75;;
42084;SDS011;27746;52.228;20.890;2022-11-20T04:25:54;58.30;;;26.60;;
42084;SDS011;27746;52.228;20.890;2022-11-20T04:28:26;46.30;;;21.03;;
42084;SDS011;27746;52.228;20.890;2022-11-20T04:30:53;54.95;;;28.05;;
42084;SDS011;27746;52.228;20.890;2022-11-20T04:33:20;59.33;;;27.40;;
42084;SDS011;27746;52.228;20.890;2022-11-20T04:35:47;53.20;;;26.83;;
42084;SDS011;27746;52.228;20.890;2022-11-20T04:38:14;59.53;;;28.35;;
42084;SDS011;27746;52.228;20.890;2022-11-20T04:40:44;62.33;;;28.60;;
42084;SDS011;27746;52.228;20.890;2022-11-20T04:43:10;55.70;;;27.63;;
42084;SDS011;27746;52.228;20.890;2022-11-20T04:45:37;59.08;;;28.88;;
42084;SDS011;27746;52.228;20.890;2022-11-20T04:48:05;55.47;;;26.65;;
42084;SDS011;27746;52.228;20.890;2022-11-20T04:50:31;65.45;;;28.80;;
42084;SDS011;27746;52.228;20.890;2022-11-20T04:52:58;61.47;;;27.67;;
42084;SDS011;27746;52.228;20.890;2022-11-20T04:55:25;60.47;;;28.42;;
42084;SDS011;27746;52.228;20.890;2022-11-20T04:57:53;60.25;;;28.85;;
42084;SDS011;27746;52.228;20.890;2022-11-20T05:00:20;55.53;;;27.80;;
42084;SDS011;27746;52.228;20.890;2022-11-20T05:02:47;61.13;;;28.13;;
42084;SDS011;27746;52.228;20.890;2022-11-20T05:05:13;66.57;;;29.40;;
42084;SDS011;27746;52.228;20.890;2022-11-20T05:07:40;65.85;;;30.77;;
42084;SDS011;27746;52.228;20.890;2022-11-20T05:10:07;60.03;;;28.67;;
42084;SDS011;27746;52.228;20.890;2022-11-20T05:12:34;59.83;;;27.73;;
42084;SDS011;27746;52.228;20.890;2022-11-20T05:15:02;62.22;;;27.48;;
42084;SDS011;27746;52.228;20.890;2022-11-20T05:17:30;66.10;;;29.80;;
42084;SDS011;27746;52.228;20.890;2022-11-20T05:19:57;66.85;;;29.75;;
42084;SDS011;27746;52.228;20.890;2022-11-20T05:22:23;61.55;;;26.85;;
42084;SDS011;27746;52.228;20.890;2022-11-20T05:24:50;65.82;;;29.08;;
42084;SDS011;27746;52.228;20.890;2022-11-20T05:27:17;57.05;;;27.88;;
42084;SDS011;27746;52.228;20.890;2022-11-20T05:29:44;57.95;;;26.30;;
42084;SDS011;27746;52.228;20.890;2022-11-20T05:32:12;55.03;;;27.00;;
42084;SDS011;27746;52.228;20.890;2022-11-20T05:34:38;60.65;;;28.73;;
42084;SDS011;27746;52.228;20.890;2022-11-20T05:37:06;57.92;;;25.77;;
42084;SDS011;27746;52.228;20.890;2022-11-20T05:39:33;63.83;;;27.15;;
42084;SDS011;27746;52.228;20.890;2022-11-20T05:42:00;56.72;;;28.05;;
42084;SDS011;27746;52.228;20.890;2022-11-20T05:44:45;54.45;;;25.23;;
42084;SDS011;27746;52.228;20.890;2022-11-20T05:47:13;57.13;;;26.35;;
42084;SDS011;27746;52.228;20.890;2022-11-20T05:49:40;53.92;;;24.75;;
42084;SDS011;27746;52.228;20.890;2022-11-20T05:52:06;53.67;;;24.02;;
42084;SDS011;27746;52.228;20.890;2022-11-20T05:54:33;58.47;;;26.45;;
42084;SDS011;27746;52.228;20.890;2022-11-20T05:57:00;50.00;;;24.67;;
42084;SDS011;27746;52.228;20.890;2022-11-20T05:59:26;51.95;;;25.38;;
42084;SDS011;27746;52.228;20.890;2022-11-20T06:01:53;52.70;;;23.42;;
42084;SDS011;27746;52.228;20.890;2022-11-20T06:04:23;56.60;;;25.77;;
42084;SDS011;27746;52.228;20.890;2022-11-20T06:06:50;53.28;;;25.10;;
42084;SDS011;27746;52.228;20.890;2022-11-20T06:09:17;48.47;;;23.77;;
42084;SDS011;27746;52.228;20.890;2022-11-20T06:11:43;53.53;;;24.42;;
42084;SDS011;27746;52.228;20.890;2022-11-20T06:14:10;49.53;;;23.63;;
42084;SDS011;27746;52.228;20.890;2022-11-20T06:16:37;54.03;;;24.88;;
42084;SDS011;27746;52.228;20.890;2022-11-20T06:19:03;53.67;;;25.70;;
42084;SDS011;27746;52.228;20.890;2022-11-20T06:21:31;54.63;;;23.67;;
42084;SDS011;27746;52.228;20.890;2022-11-20T06:23:58;52.90;;;24.88;;
42084;SDS011;27746;52.228;20.890;2022-11-20T06:26:26;54.42;;;24.88;;
42084;SDS011;27746;52.228;20.890;2022-11-20T06:28:53;55.55;;;24.77;;
42084;SDS011;27746;52.228;20.890;2022-11-20T06:31:21;51.40;;;25.00;;
42084;SDS011;27746;52.228;20.890;2022-11-20T06:33:50;58.28;;;24.40;;
42084;SDS011;27746;52.228;20.890;2022-11-20T06:36:18;55.17;;;24.65;;
42084;SDS011;27746;52.228;20.890;2022-11-20T06:38:48;50.97;;;23.40;;
42084;SDS011;27746;52.228;20.890;2022-11-20T06:41:16;54.42;;;25.27;;
42084;SDS011;27746;52.228;20.890;2022-11-20T06:43:44;52.38;;;23.92;;
42084;SDS011;27746;52.228;20.890;2022-11-20T06:46:11;61.17;;;23.50;;
42084;SDS011;27746;52.228;20.890;2022-11-20T06:48:39;54.60;;;25.27;;
42084;SDS011;27746;52.228;20.890;2022-11-20T06:51:06;57.47;;;24.85;;
42084;SDS011;27746;52.228;20.890;2022-11-20T06:53:34;53.60;;;24.08;;
42084;SDS011;27746;52.228;20.890;2022-11-20T06:56:03;55.67;;;25.27;;
42084;SDS011;27746;52.228;20.890;2022-11-20T06:58:31;54.50;;;25.02;;
42084;SDS011;27746;52.228;20.890;2022-11-20T07:00:58;57.22;;;26.95;;
42084;SDS011;27746;52.228;20.890;2022-11-20T07:03:26;52.75;;;24.15;;
42084;SDS011;27746;52.228;20.890;2022-11-20T07:05:54;49.03;;;22.70;;
42084;SDS011;27746;52.228;20.890;2022-11-20T07:08:21;45.97;;;23.25;;
42084;SDS011;27746;52.228;20.890;2022-11-20T07:10:48;51.47;;;23.88;;
42084;SDS011;27746;52.228;20.890;2022-11-20T07:13:16;48.90;;;23.77;;
42084;SDS011;27746;52.228;20.890;2022-11-20T07:15:43;51.42;;;24.63;;
42084;SDS011;27746;52.228;20.890;2022-11-20T07:18:10;54.13;;;26.45;;
42084;SDS011;27746;52.228;20.890;2022-11-20T07:20:36;58.10;;;24.77;;
42084;SDS011;27746;52.228;20.890;2022-11-20T07:23:03;51.78;;;25.50;;
42084;SDS011;27746;52.228;20.890;2022-11-20T07:25:30;50.92;;;23.92;;
42084;SDS011;27746;52.228;20.890;2022-11-20T07:27:58;48.33;;;22.83;;
42084;SDS011;27746;52.228;20.890;2022-11-20T07:30:26;51.40;;;25.02;;
42084;SDS011;27746;52.228;20.890;2022-11-20T07:32:54;57.28;;;24.15;;
42084;SDS011;27746;52.228;20.890;2022-11-20T07:35:22;51.67;;;25.70;;
42084;SDS011;27746;52.228;20.890;2022-11-20T07:37:49;55.25;;;25.80;;
42084;SDS011;27746;52.228;20.890;2022-11-20T07:40:16;51.38;;;24.63;;
42084;SDS011;27746;52.228;20.890;2022-11-20T07:42:47;54.65;;;25.08;;
42084;SDS011;27746;52.228;20.890;2022-11-20T07:45:15;51.38;;;24.27;;
42084;SDS011;27746;52.228;20.890;2022-11-20T07:47:43;53.35;;;25.75;;
42084;SDS011;27746;52.228;20.890;2022-11-20T07:50:10;47.58;;;24.15;;
42084;SDS011;27746;52.228;20.890;2022-11-20T07:52:37;54.65;;;25.38;;
42084;SDS011;27746;52.228;20.890;2022-11-20T07:55:05;55.13;;;26.58;;
42084;SDS011;27746;52.228;20.890;2022-11-20T07:57:33;45.80;;;23.65;;
42084;SDS011;27746;52.228;20.890;2022-11-20T08:00:00;47.78;;;24.92;;
42084;SDS011;27746;52.228;20.890;2022-11-20T08:02:27;50.88;;;25.60;;
42084;SDS011;27746;52.228;20.890;2022-11-20T08:04:55;49.88;;;25.33;;
42084;SDS011;27746;52.228;20.890;2022-11-20T08:07:22;51.70;;;25.30;;
42084;SDS011;27746;52.228;20.890;2022-11-20T08:09:48;52.72;;;25.08;;
42084;SDS011;27746;52.228;20.890;2022-11-20T08:12:16;52.53;;;28.33;;
42084;SDS011;27746;52.228;20.890;2022-11-20T08:15:02;54.97;;;27.42;;
42084;SDS011;27746;52.228;20.890;2022-11-20T08:17:29;56.33;;;26.83;;
42084;SDS011;27746;52.228;20.890;2022-11-20T08:19:58;52.22;;;26.75;;
42084;SDS011;27746;52.228;20.890;2022-11-20T08:22:27;53.00;;;27.05;;
42084;SDS011;27746;52.228;20.890;2022-11-20T08:24:53;54.35;;;25.05;;
42084;SDS011;27746;52.228;20.890;2022-11-20T08:27:20;48.95;;;26.23;;
42084;SDS011;27746;52.228;20.890;2022-11-20T08:29:47;50.63;;;26.98;;
42084;SDS011;27746;52.228;20.890;2022-11-20T08:32:13;48.22;;;26.98;;
42084;SDS011;27746;52.228;20.890;2022-11-20T08:34:40;50.78;;;26.05;;
42084;SDS011;27746;52.228;20.890;2022-11-20T08:37:08;53.70;;;26.48;;
42084;SDS011;27746;52.228;20.890;2022-11-20T08:39:35;50.63;;;27.70;;
42084;SDS011;27746;52.228;20.890;2022-11-20T08:42:06;58.70;;;30.17;;
42084;SDS011;27746;52.228;20.890;2022-11-20T08:44:33;48.92;;;26.25;;
42084;SDS011;27746;52.228;20.890;2022-11-20T08:46:59;53.58;;;29.13;;
42084;SDS011;27746;52.228;20.890;2022-11-20T08:49:26;53.17;;;27.95;;
42084;SDS011;27746;52.228;20.890;2022-11-20T08:51:53;53.42;;;28.17;;
42084;SDS011;27746;52.228;20.890;2022-11-20T09:00:30;53.33;;;29.25;;
42084;SDS011;27746;52.228;20.890;2022-11-20T09:02:58;48.30;;;27.63;;
42084;SDS011;27746;52.228;20.890;2022-11-20T09:05:25;46.20;;;28.35;;
42084;SDS011;27746;52.228;20.890;2022-11-20T09:07:55;47.08;;;26.65;;
42084;SDS011;27746;52.228;20.890;2022-11-20T09:10:22;44.88;;;28.05;;
42084;SDS011;27746;52.228;20.890;2022-11-20T09:12:49;47.92;;;28.83;;
42084;SDS011;27746;52.228;20.890;2022-11-20T09:15:19;42.42;;;26.35;;
42084;SDS011;27746;52.228;20.890;2022-11-20T09:17:50;48.22;;;26.85;;
42084;SDS011;27746;52.228;20.890;2022-11-20T09:20:17;47.47;;;29.42;;
42084;SDS011;27746;52.228;20.890;2022-11-20T09:22:44;51.05;;;27.30;;
42084;SDS011;27746;52.228;20.890;2022-11-20T09:25:11;48.28;;;28.38;;
42084;SDS011;27746;52.228;20.890;2022-11-20T09:27:37;44.00;;;27.02;;
42084;SDS011;27746;52.228;20.890;2022-11-20T09:30:07;46.78;;;27.85;;
42084;SDS011;27746;52.228;20.890;2022-11-20T09:32:37;45.40;;;28.83;;
42084;SDS011;27746;52.228;20.890;2022-11-20T09:35:23;46.58;;;28.27;;
42084;SDS011;27746;52.228;20.890;2022-11-20T09:37:56;44.55;;;27.73;;
42084;SDS011;27746;52.228;20.890;2022-11-20T09:42:59;46.75;;;29.63;;
42084;SDS011;27746;52.228;20.890;2022-11-20T09:51:05;45.30;;;27.85;;
42084;SDS011;27746;52.228;20.890;2022-11-20T09:53:55;43.13;;;27.90;;
42084;SDS011;27746;52.228;20.890;2022-11-20T09:56:29;46.75;;;28.10;;
42084;SDS011;27746;52.228;20.890;2022-11-20T09:58:57;46.13;;;28.30;;
42084;SDS011;27746;52.228;20.890;2022-11-20T10:01:30;41.80;;;27.55;;
42084;SDS011;27746;52.228;20.890;2022-11-20T10:04:01;43.30;;;29.13;;
42084;SDS011;27746;52.228;20.890;2022-11-20T10:06:32;42.30;;;28.33;;
42084;SDS011;27746;52.228;20.890;2022-11-20T10:09:06;43.40;;;27.05;;
42084;SDS011;27746;52.228;20.890;2022-11-20T10:11:45;43.15;;;27.55;;
42084;SDS011;27746;52.228;20.890;2022-11-20T10:14:18;41.92;;;28.02;;
42084;SDS011;27746;52.228;20.890;2022-11-20T10:16:54;39.40;;;27.92;;
42084;SDS011;27746;52.228;20.890;2022-11-20T10:19:44;43.50;;;26.70;;
42084;SDS011;27746;52.228;20.890;2022-11-20T10:22:25;39.40;;;27.30;;
42084;SDS011;27746;52.228;20.890;2022-11-20T10:25:02;43.55;;;27.17;;
42084;SDS011;27746;52.228;20.890;2022-11-20T10:27:39;39.45;;;26.60;;
42084;SDS011;27746;52.228;20.890;2022-11-20T10:30:08;40.88;;;26.05;;
42084;SDS011;27746;52.228;20.890;2022-11-20T10:32:36;39.35;;;26.67;;
42084;SDS011;27746;52.228;20.890;2022-11-20T10:35:05;35.90;;;25.08;;
42084;SDS011;27746;52.228;20.890;2022-11-20T10:37:35;38.20;;;24.95;;
42084;SDS011;27746;52.228;20.890;2022-11-20T10:40:05;39.83;;;25.15;;
42084;SDS011;27746;52.228;20.890;2022-11-20T10:42:42;37.55;;;25.60;;
42084;SDS011;27746;52.228;20.890;2022-11-20T10:45:13;39.25;;;26.80;;
42084;SDS011;27746;52.228;20.890;2022-11-20T10:47:42;38.10;;;25.52;;
42084;SDS011;27746;52.228;20.890;2022-11-20T10:50:09;39.70;;;27.13;;
42084;SDS011;27746;52.228;20.890;2022-11-20T10:52:43;39.45;;;26.15;;
42084;SDS011;27746;52.228;20.890;2022-11-20T10:55:21;33.67;;;23.73;;
42084;SDS011;27746;52.228;20.890;2022-11-20T10:57:52;35.95;;;25.45;;
42084;SDS011;27746;52.228;20.890;2022-11-20T11:00:21;35.03;;;24.80;;
42084;SDS011;27746;52.228;20.890;2022-11-20T11:02:48;33.30;;;23.38;;
42084;SDS011;27746;52.228;20.890;2022-11-20T11:05:24;36.30;;;24.67;;
42084;SDS011;27746;52.228;20.890;2022-11-20T11:07:57;36.13;;;24.73;;
42084;SDS011;27746;52.228;20.890;2022-11-20T11:10:26;37.78;;;25.48;;
42084;SDS011;27746;52.228;20.890;2022-11-20T11:12:54;36.38;;;25.05;;
42084;SDS011;27746;52.228;20.890;2022-11-20T11:15:25;35.10;;;25.05;;
42084;SDS011;27746;52.228;20.890;2022-11-20T11:17:53;32.60;;;24.15;;
42084;SDS011;27746;52.228;20.890;2022-11-20T11:20:21;32.35;;;23.50;;
42084;SDS011;27746;52.228;20.890;2022-11-20T11:22:49;34.28;;;23.83;;
42084;SDS011;27746;52.228;20.890;2022-11-20T11:25:22;32.38;;;21.92;;
42084;SDS011;27746;52.228;20.890;2022-11-20T11:27:50;32.97;;;23.48;;
42084;SDS011;27746;52.228;20.890;2022-11-20T11:30:18;33.03;;;23.60;;
42084;SDS011;27746;52.228;20.890;2022-11-20T11:32:45;33.17;;;22.05;;
42084;SDS011;27746;52.228;20.890;2022-11-20T11:35:20;34.85;;;23.30;;
42084;SDS011;27746;52.228;20.890;2022-11-20T11:37:47;31.58;;;23.10;;
42084;SDS011;27746;52.228;20.890;2022-11-20T11:40:16;32.30;;;22.58;;
42084;SDS011;27746;52.228;20.890;2022-11-20T11:42:46;32.92;;;22.92;;
42084;SDS011;27746;52.228;20.890;2022-11-20T11:45:17;31.55;;;22.75;;
42084;SDS011;27746;52.228;20.890;2022-11-20T11:47:44;32.70;;;22.48;;
42084;SDS011;27746;52.228;20.890;2022-11-20T11:50:16;30.65;;;21.02;;
42084;SDS011;27746;52.228;20.890;2022-11-20T11:52:45;31.38;;;22.23;;
42084;SDS011;27746;52.228;20.890;2022-11-20T11:55:14;31.95;;;21.88;;
42084;SDS011;27746;52.228;20.890;2022-11-20T11:57:42;29.83;;;20.70;;
42084;SDS011;27746;52.228;20.890;2022-11-20T12:00:14;30.33;;;21.70;;
42084;SDS011;27746;52.228;20.890;2022-11-20T12:02:55;33.85;;;21.98;;
42084;SDS011;27746;52.228;20.890;2022-11-20T12:05:24;35.55;;;21.63;;
42084;SDS011;27746;52.228;20.890;2022-11-20T12:07:52;30.63;;;20.88;;
42084;SDS011;27746;52.228;20.890;2022-11-20T12:10:23;36.38;;;25.17;;
42084;SDS011;27746;52.228;20.890;2022-11-20T12:12:54;29.02;;;21.30;;
42084;SDS011;27746;52.228;20.890;2022-11-20T12:15:25;30.25;;;21.13;;
42084;SDS011;27746;52.228;20.890;2022-11-20T12:17:53;29.45;;;21.17;;
42084;SDS011;27746;52.228;20.890;2022-11-20T12:20:20;29.15;;;20.40;;
42084;SDS011;27746;52.228;20.890;2022-11-20T12:22:50;34.90;;;22.77;;
42084;SDS011;27746;52.228;20.890;2022-11-20T12:25:20;30.23;;;20.85;;
42084;SDS011;27746;52.228;20.890;2022-11-20T12:27:52;29.02;;;20.48;;
42084;SDS011;27746;52.228;20.890;2022-11-20T12:30:21;28.77;;;19.33;;
42084;SDS011;27746;52.228;20.890;2022-11-20T12:33:01;30.92;;;20.67;;
42084;SDS011;27746;52.228;20.890;2022-11-20T12:35:39;30.27;;;20.40;;
42084;SDS011;27746;52.228;20.890;2022-11-20T12:38:22;29.13;;;20.55;;
42084;SDS011;27746;52.228;20.890;2022-11-20T12:40:55;30.17;;;20.88;;
42084;SDS011;27746;52.228;20.890;2022-11-20T12:43:24;29.58;;;21.05;;
42084;SDS011;27746;52.228;20.890;2022-11-20T12:46:16;30.77;;;21.98;;
42084;SDS011;27746;52.228;20.890;2022-11-20T12:51:38;33.92;;;22.02;;
42084;SDS011;27746;52.228;20.890;2022-11-20T12:54:16;33.35;;;20.75;;
42084;SDS011;27746;52.228;20.890;2022-11-20T12:56:50;32.58;;;21.45;;
42084;SDS011;27746;52.228;20.890;2022-11-20T12:59:30;31.80;;;21.88;;
42084;SDS011;27746;52.228;20.890;2022-11-20T13:02:01;33.65;;;22.02;;
42084;SDS011;27746;52.228;20.890;2022-11-20T13:04:34;31.05;;;19.48;;
42084;SDS011;27746;52.228;20.890;2022-11-20T13:07:08;40.40;;;21.52;;
42084;SDS011;27746;52.228;20.890;2022-11-20T13:09:38;35.53;;;21.90;;
42084;SDS011;27746;52.228;20.890;2022-11-20T13:12:10;33.72;;;21.10;;
42084;SDS011;27746;52.228;20.890;2022-11-20T13:14:40;36.47;;;21.58;;
42084;SDS011;27746;52.228;20.890;2022-11-20T13:17:11;37.58;;;21.40;;
42084;SDS011;27746;52.228;20.890;2022-11-20T13:19:40;35.85;;;21.38;;
42084;SDS011;27746;52.228;20.890;2022-11-20T13:22:09;39.85;;;21.33;;
42084;SDS011;27746;52.228;20.890;2022-11-20T13:24:36;37.53;;;21.73;;
42084;SDS011;27746;52.228;20.890;2022-11-20T13:27:04;38.20;;;21.80;;
42084;SDS011;27746;52.228;20.890;2022-11-20T13:29:32;39.63;;;22.40;;
42084;SDS011;27746;52.228;20.890;2022-11-20T13:32:03;38.20;;;22.17;;
42084;SDS011;27746;52.228;20.890;2022-11-20T13:34:31;41.85;;;22.05;;
42084;SDS011;27746;52.228;20.890;2022-11-20T13:36:59;36.17;;;20.80;;
42084;SDS011;27746;52.228;20.890;2022-11-20T13:39:30;38.95;;;22.20;;
42084;SDS011;27746;52.228;20.890;2022-11-20T13:41:58;40.95;;;21.10;;
42084;SDS011;27746;52.228;20.890;2022-11-20T13:44:29;38.63;;;21.55;;
42084;SDS011;27746;52.228;20.890;2022-11-20T13:46:57;40.85;;;21.13;;
42084;SDS011;27746;52.228;20.890;2022-11-20T13:49:25;37.42;;;20.25;;
42084;SDS011;27746;52.228;20.890;2022-11-20T13:51:55;38.97;;;21.98;;
42084;SDS011;27746;52.228;20.890;2022-11-20T13:57:23;42.60;;;21.95;;
42084;SDS011;27746;52.228;20.890;2022-11-20T13:59:56;37.17;;;20.63;;
42084;SDS011;27746;52.228;20.890;2022-11-20T14:02:25;40.90;;;21.13;;
42084;SDS011;27746;52.228;20.890;2022-11-20T14:04:55;42.20;;;22.63;;
42084;SDS011;27746;52.228;20.890;2022-11-20T14:07:25;39.95;;;20.85;;
42084;SDS011;27746;52.228;20.890;2022-11-20T14:09:54;42.03;;;22.27;;
42084;SDS011;27746;52.228;20.890;2022-11-20T14:12:26;49.28;;;23.17;;
42084;SDS011;27746;52.228;20.890;2022-11-20T14:14:55;48.83;;;24.58;;
42084;SDS011;27746;52.228;20.890;2022-11-20T14:17:23;43.17;;;22.40;;
42084;SDS011;27746;52.228;20.890;2022-11-20T14:19:55;43.95;;;21.65;;
42084;SDS011;27746;52.228;20.890;2022-11-20T14:22:26;41.20;;;21.05;;
42084;SDS011;27746;52.228;20.890;2022-11-20T14:25:00;44.72;;;22.00;;
42084;SDS011;27746;52.228;20.890;2022-11-20T14:27:32;41.05;;;21.48;;
42084;SDS011;27746;52.228;20.890;2022-11-20T14:30:04;45.20;;;23.77;;
42084;SDS011;27746;52.228;20.890;2022-11-20T14:32:31;43.33;;;22.80;;
42084;SDS011;27746;52.228;20.890;2022-11-20T14:35:02;49.05;;;24.15;;
42084;SDS011;27746;52.228;20.890;2022-11-20T14:37:36;46.30;;;22.73;;
42084;SDS011;27746;52.228;20.890;2022-11-20T14:40:20;47.10;;;24.08;;